NKS270 MKJS-KFLL
Flight info
| Callsign | NKS270 |
|---|---|
| Flight time | N/A |
| Altitude | 36000 |
| Route | OTUNU UL417 BORDO OLAHS3 |
| Aircraft | A321/M-SDE3FGHIRWY/LB1 |
Departure
| Time | N/A |
|---|---|
| Airport | Sangster International Airport (MKJS) |
Arrival
| Time | 2026-04-30 19:06 |
|---|---|
| Airport | Fort Lauderdale Hollywood International Airport (KFLL) |
| Time | Latitude | Longitude | Altitude | Speed | Heading |
|---|---|---|---|---|---|
| 2026-04-30 17:39 | 18.76011 | -77.86392 | 10022 ft | 280 kts | 345° |
| 2026-04-30 17:41 | 18.94088 | -77.90880 | 13183 ft | 363 kts | 356° |
| 2026-04-30 17:42 | 18.99159 | -77.91125 | 14275 ft | 367 kts | 356° |
| 2026-04-30 17:42 | 19.06833 | -77.91481 | 15818 ft | 373 kts | 356° |
| 2026-04-30 17:43 | 19.12050 | -77.91729 | 16830 ft | 378 kts | 356° |
| 2026-04-30 17:44 | 19.20008 | -77.92107 | 18367 ft | 385 kts | 356° |
| 2026-04-30 17:44 | 19.28113 | -77.92489 | 19726 ft | 392 kts | 356° |
| 2026-04-30 17:46 | 19.41947 | -77.93145 | 22012 ft | 403 kts | 356° |
| 2026-04-30 17:47 | 19.53254 | -77.93665 | 23036 ft | 408 kts | 356° |
| 2026-04-30 17:48 | 19.64586 | -77.94203 | 23037 ft | 408 kts | 356° |
| 2026-04-30 17:48 | 19.73047 | -77.94608 | 23042 ft | 407 kts | 356° |
| 2026-04-30 17:49 | 19.84348 | -77.95154 | 23039 ft | 406 kts | 356° |
| 2026-04-30 17:50 | 19.95642 | -77.95690 | 23039 ft | 406 kts | 356° |
| 2026-04-30 17:51 | 20.04113 | -77.96092 | 23035 ft | 406 kts | 356° |
| 2026-04-30 17:52 | 20.12579 | -77.96486 | 23039 ft | 406 kts | 356° |
| 2026-04-30 17:53 | 20.26674 | -77.97178 | 23039 ft | 405 kts | 355° |
| 2026-04-30 17:54 | 20.37876 | -77.98604 | 23319 ft | 407 kts | 351° |
| 2026-04-30 17:55 | 20.49185 | -78.00107 | 24769 ft | 415 kts | 353° |
| 2026-04-30 17:56 | 20.60758 | -78.01565 | 27106 ft | 424 kts | 353° |
| 2026-04-30 17:57 | 20.69628 | -78.02701 | 26934 ft | 431 kts | 353° |
| 2026-04-30 17:58 | 20.78621 | -78.03849 | 27892 ft | 437 kts | 354° |
| 2026-04-30 17:59 | 20.90823 | -78.05414 | 29065 ft | 446 kts | 354° |
| 2026-04-30 18:00 | 21.03224 | -78.07003 | 30167 ft | 455 kts | 354° |
| 2026-04-30 18:00 | 21.12710 | -78.08224 | 30904 ft | 460 kts | 354° |
| 2026-04-30 18:01 | 21.19085 | -78.09042 | 31356 ft | 463 kts | 353° |
| 2026-04-30 18:02 | 21.28730 | -78.10274 | 31967 ft | 467 kts | 353° |
| 2026-04-30 18:02 | 21.38455 | -78.11521 | 32486 ft | 471 kts | 353° |
| 2026-04-30 18:03 | 21.48256 | -78.12786 | 32915 ft | 474 kts | 352° |
| 2026-04-30 18:04 | 21.58089 | -78.14061 | 33447 ft | 474 kts | 352° |
| 2026-04-30 18:05 | 21.71121 | -78.15744 | 34211 ft | 472 kts | 351° |
| 2026-04-30 18:06 | 21.84115 | -78.17433 | 34932 ft | 469 kts | 351° |
| 2026-04-30 18:07 | 21.97060 | -78.19113 | 35626 ft | 468 kts | 351° |
| 2026-04-30 18:08 | 22.06732 | -78.20377 | 35978 ft | 465 kts | 351° |
| 2026-04-30 18:10 | 22.32340 | -78.23711 | 35980 ft | 463 kts | 351° |
| 2026-04-30 18:11 | 22.54763 | -78.26651 | 36023 ft | 463 kts | 352° |
| 2026-04-30 18:12 | 22.64298 | -78.27898 | 35986 ft | 446 kts | 352° |
| 2026-04-30 18:13 | 22.70301 | -78.28682 | 35991 ft | 432 kts | 352° |
| 2026-04-30 18:14 | 22.85166 | -78.30634 | 35991 ft | 430 kts | 352° |
| 2026-04-30 18:15 | 23.02996 | -78.32997 | 36013 ft | 431 kts | 352° |
| 2026-04-30 18:16 | 23.14888 | -78.34559 | 36016 ft | 430 kts | 352° |
| 2026-04-30 18:17 | 23.20828 | -78.35341 | 36017 ft | 430 kts | 352° |
| 2026-04-30 18:18 | 23.29736 | -78.36524 | 36016 ft | 430 kts | 352° |
| 2026-04-30 18:18 | 23.35671 | -78.37312 | 36024 ft | 429 kts | 351° |
| 2026-04-30 18:19 | 23.41601 | -78.38101 | 36023 ft | 429 kts | 351° |
| 2026-04-30 18:19 | 23.47521 | -78.38888 | 36021 ft | 428 kts | 351° |
| 2026-04-30 18:20 | 23.53398 | -78.39674 | 36019 ft | 428 kts | 351° |
| 2026-04-30 18:20 | 23.59312 | -78.40453 | 36017 ft | 428 kts | 352° |
| 2026-04-30 18:21 | 23.65222 | -78.41231 | 36023 ft | 428 kts | 351° |
| 2026-04-30 18:21 | 23.71124 | -78.42026 | 36022 ft | 427 kts | 351° |
| 2026-04-30 18:22 | 23.77013 | -78.42818 | 36023 ft | 426 kts | 351° |
| 2026-04-30 18:22 | 23.85829 | -78.43989 | 36019 ft | 425 kts | 351° |
| 2026-04-30 18:23 | 23.90710 | -78.44641 | 36019 ft | 425 kts | 351° |
| 2026-04-30 18:23 | 23.97570 | -78.45558 | 36033 ft | 424 kts | 352° |
| 2026-04-30 18:24 | 24.05413 | -78.45856 | 36027 ft | 424 kts | 358° |
| 2026-04-30 18:25 | 24.11307 | -78.45821 | 36022 ft | 423 kts | 358° |
| 2026-04-30 18:25 | 24.20131 | -78.45771 | 36018 ft | 422 kts | 358° |
| 2026-04-30 18:26 | 24.28907 | -78.45717 | 36016 ft | 422 kts | 358° |
| 2026-04-30 18:27 | 24.37787 | -78.45660 | 35993 ft | 425 kts | 358° |
| 2026-04-30 18:28 | 24.46683 | -78.45602 | 35992 ft | 427 kts | 358° |
| 2026-04-30 18:28 | 24.55627 | -78.45587 | 34765 ft | 430 kts | 358° |
| 2026-04-30 18:29 | 24.58637 | -78.45585 | 33875 ft | 437 kts | 358° |
| 2026-04-30 18:29 | 24.67742 | -78.45575 | 31943 ft | 437 kts | 358° |
| 2026-04-30 18:30 | 24.73788 | -78.45559 | 30834 ft | 433 kts | 358° |
| 2026-04-30 18:30 | 24.79785 | -78.45548 | 29697 ft | 429 kts | 358° |
| 2026-04-30 18:31 | 24.82759 | -78.45543 | 29096 ft | 426 kts | 358° |
| 2026-04-30 18:31 | 24.88654 | -78.45529 | 27976 ft | 421 kts | 358° |
| 2026-04-30 18:32 | 24.94480 | -78.45549 | 26871 ft | 416 kts | 358° |
| 2026-04-30 18:32 | 24.97366 | -78.45569 | 26344 ft | 414 kts | 357° |
| 2026-04-30 18:32 | 25.03089 | -78.45609 | 25421 ft | 408 kts | 357° |
| 2026-04-30 18:33 | 25.05927 | -78.45627 | 25330 ft | 410 kts | 358° |
| 2026-04-30 18:33 | 25.11648 | -78.45664 | 25116 ft | 411 kts | 358° |
| 2026-04-30 18:33 | 25.14506 | -78.45679 | 25004 ft | 411 kts | 358° |
| 2026-04-30 18:34 | 25.17363 | -78.45692 | 24898 ft | 410 kts | 358° |
| 2026-04-30 18:34 | 25.23065 | -78.45713 | 24686 ft | 410 kts | 358° |
| 2026-04-30 18:34 | 25.25913 | -78.45724 | 24578 ft | 409 kts | 358° |
| 2026-04-30 18:35 | 25.28762 | -78.45735 | 24472 ft | 409 kts | 358° |
| 2026-04-30 18:35 | 25.31604 | -78.45746 | 24366 ft | 409 kts | 358° |
| 2026-04-30 18:35 | 25.34448 | -78.45783 | 24254 ft | 408 kts | 354° |
| 2026-04-30 18:36 | 25.39710 | -78.47716 | 24045 ft | 400 kts | 324° |
| 2026-04-30 18:36 | 25.41812 | -78.49657 | 23628 ft | 400 kts | 310° |
| 2026-04-30 18:36 | 25.44472 | -78.54943 | 22619 ft | 392 kts | 292° |
| 2026-04-30 18:37 | 25.45520 | -78.57709 | 22152 ft | 389 kts | 292° |
| 2026-04-30 18:37 | 25.46574 | -78.60451 | 21700 ft | 386 kts | 292° |
| 2026-04-30 18:37 | 25.47623 | -78.63169 | 21250 ft | 382 kts | 292° |
| 2026-04-30 18:37 | 25.48662 | -78.65865 | 20797 ft | 379 kts | 292° |
| 2026-04-30 18:38 | 25.49690 | -78.68538 | 20355 ft | 376 kts | 292° |
| 2026-04-30 18:38 | 25.50708 | -78.71188 | 19919 ft | 373 kts | 293° |
| 2026-04-30 18:38 | 25.51715 | -78.73818 | 19468 ft | 369 kts | 292° |
| 2026-04-30 18:38 | 25.52711 | -78.76425 | 19037 ft | 366 kts | 292° |
| 2026-04-30 18:39 | 25.53698 | -78.79013 | 18567 ft | 364 kts | 293° |
| 2026-04-30 18:39 | 25.54676 | -78.81582 | 18071 ft | 361 kts | 293° |
| 2026-04-30 18:39 | 25.55647 | -78.84131 | 17588 ft | 357 kts | 293° |
| 2026-04-30 18:39 | 25.56608 | -78.86652 | 17119 ft | 353 kts | 293° |
| 2026-04-30 18:40 | 25.57557 | -78.89134 | 16677 ft | 348 kts | 293° |
| 2026-04-30 18:40 | 25.58496 | -78.91593 | 16239 ft | 344 kts | 293° |
| 2026-04-30 18:40 | 25.59419 | -78.94017 | 15799 ft | 340 kts | 293° |
| 2026-04-30 18:40 | 25.60331 | -78.96417 | 15363 ft | 336 kts | 293° |
| 2026-04-30 18:41 | 25.61233 | -78.98791 | 14946 ft | 332 kts | 293° |
| 2026-04-30 18:41 | 25.62126 | -79.01138 | 14515 ft | 329 kts | 293° |
| 2026-04-30 18:41 | 25.63015 | -79.03467 | 14091 ft | 326 kts | 294° |
| 2026-04-30 18:41 | 25.63891 | -79.05774 | 13669 ft | 324 kts | 293° |
| 2026-04-30 18:42 | 25.64742 | -79.08034 | 13243 ft | 321 kts | 293° |
| 2026-04-30 18:42 | 25.66452 | -79.12594 | 12432 ft | 320 kts | 293° |
| 2026-04-30 18:42 | 25.67304 | -79.14870 | 12010 ft | 319 kts | 293° |
| 2026-04-30 18:45 | 25.75741 | -79.37561 | 9148 ft | 315 kts | 292° |
| 2026-04-30 18:45 | 25.76533 | -79.39722 | 8866 ft | 290 kts | 292° |
| 2026-04-30 18:45 | 25.77281 | -79.41761 | 8627 ft | 283 kts | 292° |
| 2026-04-30 18:46 | 25.78019 | -79.43771 | 8403 ft | 279 kts | 291° |
| 2026-04-30 18:46 | 25.78748 | -79.45759 | 8178 ft | 277 kts | 291° |
| 2026-04-30 18:46 | 25.79473 | -79.47739 | 7949 ft | 277 kts | 291° |
| 2026-04-30 18:46 | 25.80194 | -79.49717 | 7728 ft | 276 kts | 291° |
| 2026-04-30 18:47 | 25.80913 | -79.51692 | 7500 ft | 276 kts | 291° |
| 2026-04-30 18:47 | 25.81631 | -79.53665 | 7274 ft | 275 kts | 291° |
| 2026-04-30 18:47 | 25.82349 | -79.55628 | 7050 ft | 274 kts | 291° |
| 2026-04-30 18:47 | 25.83066 | -79.57585 | 6831 ft | 273 kts | 291° |
| 2026-04-30 18:48 | 25.83779 | -79.59531 | 6599 ft | 272 kts | 291° |
| 2026-04-30 18:48 | 25.84497 | -79.61477 | 6380 ft | 272 kts | 291° |
| 2026-04-30 18:48 | 25.85223 | -79.63410 | 6149 ft | 271 kts | 291° |
| 2026-04-30 18:48 | 25.85965 | -79.65338 | 6023 ft | 272 kts | 293° |
| 2026-04-30 18:49 | 25.86764 | -79.67246 | 6022 ft | 273 kts | 294° |
| 2026-04-30 18:49 | 25.87591 | -79.69149 | 6023 ft | 274 kts | 295° |
| 2026-04-30 18:49 | 25.88413 | -79.71025 | 6025 ft | 273 kts | 295° |
| 2026-04-30 18:49 | 25.89243 | -79.72924 | 6020 ft | 274 kts | 295° |
| 2026-04-30 18:50 | 25.90069 | -79.74824 | 6019 ft | 273 kts | 294° |
| 2026-04-30 18:50 | 25.90888 | -79.76722 | 6020 ft | 272 kts | 294° |
| 2026-04-30 18:50 | 25.91701 | -79.78623 | 6020 ft | 272 kts | 294° |
| 2026-04-30 18:50 | 25.92510 | -79.80523 | 6021 ft | 271 kts | 293° |
| 2026-04-30 18:51 | 25.93314 | -79.82408 | 6023 ft | 271 kts | 294° |
| 2026-04-30 18:51 | 25.94120 | -79.84299 | 6021 ft | 271 kts | 294° |
| 2026-04-30 18:51 | 25.94928 | -79.86194 | 6025 ft | 271 kts | 293° |
| 2026-04-30 18:51 | 25.95728 | -79.88076 | 6010 ft | 269 kts | 294° |
| 2026-04-30 18:52 | 25.96527 | -79.89962 | 6014 ft | 271 kts | 294° |
| 2026-04-30 18:52 | 25.97329 | -79.91855 | 6014 ft | 270 kts | 293° |
| 2026-04-30 18:52 | 25.98128 | -79.93740 | 6013 ft | 269 kts | 293° |
| 2026-04-30 18:52 | 25.99048 | -79.95548 | 6012 ft | 271 kts | 305° |
| 2026-04-30 18:53 | 26.00293 | -79.97128 | 6012 ft | 273 kts | 311° |
| 2026-04-30 18:53 | 26.01568 | -79.98691 | 6013 ft | 273 kts | 310° |
| 2026-04-30 18:53 | 26.02839 | -80.00258 | 6009 ft | 273 kts | 310° |
| 2026-04-30 18:53 | 26.04111 | -80.01830 | 6004 ft | 273 kts | 310° |
| 2026-04-30 18:54 | 26.05380 | -80.03397 | 6009 ft | 273 kts | 310° |
| 2026-04-30 18:54 | 26.06650 | -80.04966 | 6009 ft | 272 kts | 310° |
| 2026-04-30 18:54 | 26.07915 | -80.06531 | 6011 ft | 272 kts | 310° |
| 2026-04-30 18:54 | 26.09166 | -80.08080 | 6011 ft | 273 kts | 309° |
| 2026-04-30 18:55 | 26.10432 | -80.09646 | 6010 ft | 273 kts | 309° |
| 2026-04-30 18:55 | 26.12972 | -80.12793 | 6005 ft | 273 kts | 309° |
| 2026-04-30 18:55 | 26.14148 | -80.14439 | 6003 ft | 271 kts | 298° |
| 2026-04-30 18:56 | 26.15049 | -80.18427 | 5848 ft | 266 kts | 269° |
| 2026-04-30 18:56 | 26.15048 | -80.20496 | 5744 ft | 266 kts | 269° |
| 2026-04-30 18:56 | 26.15051 | -80.22547 | 5633 ft | 266 kts | 270° |
| 2026-04-30 18:57 | 26.15072 | -80.26702 | 5402 ft | 267 kts | 270° |
| 2026-04-30 18:57 | 26.15096 | -80.28762 | 5287 ft | 265 kts | 270° |
| 2026-04-30 18:57 | 26.15110 | -80.30808 | 5185 ft | 265 kts | 270° |
| 2026-04-30 18:58 | 26.15083 | -80.34875 | 4887 ft | 260 kts | 268° |
| 2026-04-30 18:58 | 26.15053 | -80.36850 | 4961 ft | 244 kts | 268° |
| 2026-04-30 18:58 | 26.15021 | -80.38644 | 4866 ft | 227 kts | 268° |
| 2026-04-30 18:59 | 26.14951 | -80.42056 | 4297 ft | 220 kts | 268° |
| 2026-04-30 19:00 | 26.12823 | -80.45928 | 4003 ft | 220 kts | 195° |
| 2026-04-30 19:00 | 26.11302 | -80.46001 | 3999 ft | 216 kts | 175° |
| 2026-04-30 19:00 | 26.08758 | -80.44428 | 4001 ft | 216 kts | 133° |
| 2026-04-30 19:01 | 26.07800 | -80.41240 | 4005 ft | 223 kts | 92° |
| 2026-04-30 19:01 | 26.07796 | -80.39540 | 3852 ft | 222 kts | 90° |
| 2026-04-30 19:02 | 26.07787 | -80.36132 | 3323 ft | 222 kts | 93° |
| 2026-04-30 19:02 | 26.07773 | -80.32687 | 2751 ft | 221 kts | 91° |
| 2026-04-30 19:03 | 26.07758 | -80.29316 | 2187 ft | 212 kts | 92° |
| 2026-04-30 19:03 | 26.07745 | -80.26204 | 1694 ft | 193 kts | 94° |
| 2026-04-30 19:04 | 26.07734 | -80.23402 | 1173 ft | 163 kts | 94° |
| 2026-04-30 19:04 | 26.07728 | -80.21010 | 750 ft | 149 kts | 95° |
| 2026-04-30 19:05 | 26.07711 | -80.18738 | 385 ft | 143 kts | 94° |
| 2026-04-30 19:05 | 26.07699 | -80.16594 | 92 ft | 136 kts | 94° |
| 2026-04-30 19:06 | 26.07682 | -80.14822 | 19 ft | 83 kts | 90° |
| 2026-04-30 19:06 | 26.07678 | -80.14341 | 21 ft | 31 kts | 90° |
| 2026-04-30 19:06 | 26.07604 | -80.14229 | 18 ft | 0 kts | 175° |
| 2026-04-30 19:07 | 26.07598 | -80.14229 | 18 ft | 0 kts | 175° |
| 2026-04-30 19:09 | 26.07597 | -80.14229 | 19 ft | 2 kts | 175° |
| 2026-04-30 19:10 | 26.07557 | -80.14350 | 17 ft | 13 kts | 270° |
| 2026-04-30 19:10 | 26.07559 | -80.14596 | 17 ft | 18 kts | 271° |
| 2026-04-30 19:11 | 26.07560 | -80.14737 | 17 ft | 19 kts | 270° |
| 2026-04-30 19:11 | 26.07408 | -80.14986 | 16 ft | 22 kts | 224° |
| 2026-04-30 19:11 | 26.07302 | -80.15101 | 16 ft | 17 kts | 222° |
| 2026-04-30 19:12 | 26.07200 | -80.15111 | 16 ft | 15 kts | 142° |
| 2026-04-30 19:12 | 26.07124 | -80.15029 | 16 ft | 16 kts | 134° |
| 2026-04-30 19:12 | 26.07042 | -80.14940 | 16 ft | 17 kts | 135° |
| 2026-04-30 19:13 | 26.06863 | -80.14742 | 17 ft | 19 kts | 135° |
| 2026-04-30 19:13 | 26.06772 | -80.14481 | 16 ft | 20 kts | 89° |
| 2026-04-30 19:13 | 26.06771 | -80.14333 | 16 ft | 15 kts | 89° |
| 2026-04-30 19:14 | 26.06812 | -80.14223 | 16 ft | 16 kts | 75° |
| 2026-04-30 19:14 | 26.06818 | -80.14143 | 16 ft | 15 kts | 86° |
| 2026-04-30 19:14 | 26.06874 | -80.14084 | 16 ft | 11 kts | 4° |
| 2026-04-30 19:14 | 26.06934 | -80.14082 | 16 ft | 6 kts | 358° |
| 2026-04-30 19:15 | 26.06950 | -80.14100 | 16 ft | 4 kts | 299° |
| 2026-04-30 19:15 | 26.06958 | -80.14132 | 16 ft | 2 kts | 282° |
| 2026-04-30 19:15 | 26.06959 | -80.14133 | 16 ft | 0 kts | 282° |
| 2026-04-30 19:16 | 26.06959 | -80.14135 | 16 ft | 1 kts | 282° |
| 2026-04-30 19:16 | 26.06960 | -80.14139 | 16 ft | 0 kts | 281° |
| 2026-04-30 19:16 | 26.06960 | -80.14140 | 16 ft | 0 kts | 281° |